createdAt,value
2023-05-21T00:02:17.073Z,17.92
2023-05-21T00:04:44.293Z,17.91
2023-05-21T00:07:12.133Z,17.89
2023-05-21T00:09:39.027Z,17.85
2023-05-21T00:12:07.418Z,17.83
2023-05-21T00:14:35.391Z,17.81
2023-05-21T00:17:02.245Z,17.79
2023-05-21T00:19:32.212Z,17.77
2023-05-21T00:22:03.295Z,17.73
2023-05-21T00:24:30.219Z,17.70
2023-05-21T00:26:57.067Z,17.67
2023-05-21T00:29:26.096Z,17.64
2023-05-21T00:31:53.375Z,17.62
2023-05-21T00:34:20.381Z,17.58
2023-05-21T00:36:47.658Z,17.56
2023-05-21T00:39:15.389Z,17.53
2023-05-21T00:41:46.069Z,17.50
2023-05-21T00:44:13.401Z,17.47
2023-05-21T00:46:40.513Z,17.46
2023-05-21T00:49:07.549Z,17.46
2023-05-21T00:51:34.450Z,17.45
2023-05-21T00:54:01.826Z,17.44
2023-05-21T00:56:28.785Z,17.43
2023-05-21T00:58:56.759Z,17.42
2023-05-21T01:01:25.501Z,17.40
2023-05-21T01:03:53.839Z,17.38
2023-05-21T01:06:20.876Z,17.36
2023-05-21T01:08:48.038Z,17.34
2023-05-21T01:11:15.923Z,17.32
2023-05-21T01:13:42.878Z,17.30
2023-05-21T01:16:10.433Z,17.30
2023-05-21T01:18:37.815Z,17.31
2023-05-21T01:21:06.792Z,17.32
2023-05-21T01:23:33.967Z,17.32
2023-05-21T01:26:00.796Z,17.32
2023-05-21T01:28:29.522Z,17.32
2023-05-21T01:30:56.242Z,17.31
2023-05-21T01:33:26.837Z,17.27
2023-05-21T01:36:00.067Z,17.23
2023-05-21T01:38:35.999Z,17.20
2023-05-21T01:41:04.223Z,17.19
2023-05-21T01:43:34.107Z,17.18
2023-05-21T01:46:01.268Z,17.17
2023-05-21T01:48:29.118Z,17.17
2023-05-21T01:51:00.605Z,17.18
2023-05-21T01:53:27.744Z,17.19
2023-05-21T01:55:55.406Z,17.20
2023-05-21T01:58:23.562Z,17.17
2023-05-21T02:00:51.245Z,17.17
2023-05-21T02:03:19.404Z,17.14
2023-05-21T02:05:46.803Z,17.13
2023-05-21T02:08:15.109Z,17.11
2023-05-21T02:10:42.033Z,17.09
2023-05-21T02:13:09.421Z,17.06
2023-05-21T02:15:36.546Z,17.04
2023-05-21T02:18:03.858Z,17.02
2023-05-21T02:20:31.048Z,17.00
2023-05-21T02:22:58.731Z,16.99
2023-05-21T02:25:25.526Z,17.01
2023-05-21T02:27:53.424Z,17.02
2023-05-21T02:30:20.497Z,17.03
2023-05-21T02:32:48.381Z,17.01
2023-05-21T02:35:15.425Z,16.99
2023-05-21T02:37:43.508Z,16.97
2023-05-21T02:40:10.544Z,16.94
2023-05-21T02:42:39.116Z,16.89
2023-05-21T02:45:08.350Z,16.84
2023-05-21T02:47:35.157Z,16.83
2023-05-21T02:50:02.252Z,16.81
2023-05-21T02:52:30.156Z,16.79
2023-05-21T02:54:56.975Z,16.77
2023-05-21T02:57:23.753Z,16.78
2023-05-21T02:59:51.586Z,16.80
2023-05-21T03:02:18.739Z,16.77
2023-05-21T03:04:45.627Z,16.75
2023-05-21T03:07:18.512Z,16.75
2023-05-21T03:09:45.928Z,16.74
2023-05-21T03:12:13.131Z,16.75
2023-05-21T03:14:43.474Z,16.76
2023-05-21T03:17:13.340Z,16.76
2023-05-21T03:19:41.207Z,16.74
2023-05-21T03:22:08.163Z,16.70
2023-05-21T03:24:40.818Z,16.68
2023-05-21T03:27:09.027Z,16.68
2023-05-21T03:29:37.083Z,16.67
2023-05-21T03:32:04.909Z,16.67
2023-05-21T03:34:33.976Z,16.66
2023-05-21T03:37:01.638Z,16.66
2023-05-21T03:39:31.452Z,16.66
2023-05-21T03:41:59.130Z,16.68
2023-05-21T03:44:36.408Z,16.69
2023-05-21T03:47:27.652Z,16.70
2023-05-21T03:49:54.672Z,16.66
2023-05-21T03:52:21.646Z,16.63
2023-05-21T03:54:48.871Z,16.62
2023-05-21T03:57:15.640Z,16.63
2023-05-21T03:59:42.701Z,16.70
2023-05-21T04:02:09.584Z,16.80
2023-05-21T04:04:36.480Z,16.90
2023-05-21T04:07:04.131Z,17.02
2023-05-21T04:09:31.294Z,17.07
2023-05-21T04:11:58.272Z,17.13
2023-05-21T04:14:25.290Z,17.15
2023-05-21T04:16:52.655Z,17.15
2023-05-21T04:19:20.701Z,17.16
2023-05-21T04:21:48.474Z,17.17
2023-05-21T04:24:15.844Z,17.15
2023-05-21T04:26:49.921Z,17.16
2023-05-21T04:29:20.917Z,17.15
2023-05-21T04:31:49.036Z,17.16
2023-05-21T04:34:19.421Z,17.16
2023-05-21T04:36:47.040Z,17.16
2023-05-21T04:39:14.244Z,17.16
2023-05-21T04:41:41.121Z,17.17
2023-05-21T04:44:08.851Z,17.16
2023-05-21T04:46:35.836Z,17.16
2023-05-21T04:49:03.180Z,17.18
2023-05-21T04:51:30.494Z,17.23
2023-05-21T04:53:57.690Z,17.31
2023-05-21T04:56:27.644Z,17.38
2023-05-21T04:58:54.765Z,17.44
2023-05-21T05:01:28.873Z,17.53
2023-05-21T05:03:55.991Z,17.64
2023-05-21T05:06:25.339Z,17.68
2023-05-21T05:08:52.289Z,17.77
2023-05-21T05:11:21.789Z,17.92
2023-05-21T05:13:49.029Z,18.07
2023-05-21T05:16:18.892Z,18.18
2023-05-21T05:18:46.423Z,18.32
2023-05-21T05:21:13.398Z,18.42
2023-05-21T05:23:42.288Z,18.51
2023-05-21T05:26:10.451Z,18.59
2023-05-21T05:28:37.312Z,18.60
2023-05-21T05:31:04.496Z,18.52
2023-05-21T05:33:32.567Z,18.45
2023-05-21T05:35:59.454Z,18.38
2023-05-21T05:38:26.883Z,18.34
2023-05-21T05:40:53.840Z,18.30
2023-05-21T05:43:20.977Z,18.26
2023-05-21T05:45:48.790Z,18.21
2023-05-21T05:48:16.296Z,18.27
2023-05-21T05:50:43.831Z,18.36
2023-05-21T05:53:12.636Z,18.26
2023-05-21T05:55:40.112Z,18.12
2023-05-21T05:58:06.881Z,18.12
2023-05-21T06:00:42.098Z,18.09
2023-05-21T06:03:09.081Z,18.03
2023-05-21T06:05:36.317Z,17.89
2023-05-21T06:08:03.766Z,17.77
2023-05-21T06:10:30.827Z,17.70
2023-05-21T06:12:57.982Z,17.67
2023-05-21T06:15:24.951Z,17.61
2023-05-21T06:17:52.101Z,17.55
2023-05-21T06:20:20.064Z,17.49
2023-05-21T06:22:47.210Z,17.46
2023-05-21T06:25:15.697Z,17.41
2023-05-21T06:27:42.777Z,17.36
2023-05-21T06:30:15.565Z,17.34
2023-05-21T06:32:43.983Z,17.31
2023-05-21T06:35:11.167Z,17.28
2023-05-21T06:37:39.440Z,17.24
2023-05-21T06:40:08.144Z,17.20
2023-05-21T06:42:35.510Z,17.18
2023-05-21T06:45:21.391Z,17.17
2023-05-21T06:47:52.008Z,17.15
2023-05-21T06:50:19.701Z,17.14
2023-05-21T06:52:46.725Z,17.13
2023-05-21T06:55:13.914Z,17.09
2023-05-21T06:58:01.081Z,17.06
2023-05-21T07:00:27.958Z,17.04
2023-05-21T07:02:55.060Z,17.01
2023-05-21T07:05:21.907Z,16.99
2023-05-21T07:07:48.920Z,16.99
2023-05-21T07:10:15.840Z,17.00
2023-05-21T07:12:42.644Z,17.02
2023-05-21T07:15:10.587Z,17.04
2023-05-21T07:17:37.802Z,17.05
2023-05-21T07:20:09.401Z,17.05
2023-05-21T07:22:38.329Z,17.06
2023-05-21T07:25:06.367Z,17.05
2023-05-21T07:27:34.296Z,17.04
2023-05-21T07:30:01.340Z,17.04
2023-05-21T07:32:30.054Z,17.01
2023-05-21T07:35:01.200Z,17.00
2023-05-21T07:37:28.242Z,17.01
2023-05-21T07:39:58.192Z,17.03
2023-05-21T07:42:25.671Z,17.06
2023-05-21T07:44:53.316Z,17.09
2023-05-21T07:47:20.142Z,17.13
2023-05-21T07:49:47.269Z,17.17
2023-05-21T07:52:14.219Z,17.19
2023-05-21T07:54:41.071Z,17.22
2023-05-21T07:57:08.003Z,17.27
2023-05-21T08:00:13.730Z,17.31
2023-05-21T08:02:48.216Z,17.36
2023-05-21T08:05:16.114Z,17.41
2023-05-21T08:07:43.119Z,17.45
2023-05-21T08:10:10.330Z,17.48
2023-05-21T08:12:37.700Z,17.52
2023-05-21T08:15:06.373Z,17.58
2023-05-21T08:17:35.270Z,17.64
2023-05-21T08:20:03.245Z,17.67
2023-05-21T08:22:31.122Z,17.70
2023-05-21T08:24:57.875Z,17.75
2023-05-21T08:27:24.742Z,17.80
2023-05-21T08:29:52.386Z,17.87
2023-05-21T08:32:19.153Z,17.94
2023-05-21T08:34:46.179Z,18.00
2023-05-21T08:37:36.608Z,18.04
2023-05-21T08:40:11.885Z,18.08
2023-05-21T08:42:47.126Z,18.13
2023-05-21T08:45:21.639Z,18.18
2023-05-21T08:47:55.718Z,18.28
2023-05-21T08:50:25.622Z,18.35
2023-05-21T08:52:54.786Z,18.43
2023-05-21T08:55:23.085Z,18.47
2023-05-21T08:57:50.339Z,18.51
2023-05-21T09:00:20.176Z,18.57
2023-05-21T09:02:47.711Z,18.66
2023-05-21T09:05:15.027Z,18.77
2023-05-21T09:07:46.757Z,18.88
2023-05-21T09:10:35.184Z,19.00
2023-05-21T09:13:02.829Z,19.11
2023-05-21T09:15:30.078Z,19.21
2023-05-21T09:17:57.354Z,19.32
2023-05-21T09:20:47.196Z,19.48
2023-05-21T09:23:16.774Z,19.63
2023-05-21T09:25:48.232Z,19.78
2023-05-21T09:28:21.899Z,19.92
2023-05-21T09:30:51.523Z,20.04
2023-05-21T09:33:25.649Z,20.19
2023-05-21T09:35:52.620Z,20.32
2023-05-21T09:38:23.404Z,20.42
2023-05-21T09:40:50.571Z,20.54
2023-05-21T09:43:18.043Z,20.65
2023-05-21T09:45:55.190Z,20.76
2023-05-21T09:48:37.934Z,20.86
2023-05-21T09:51:07.741Z,21.00
2023-05-21T09:53:34.727Z,21.10
2023-05-21T09:56:03.147Z,21.16
2023-05-21T09:58:29.919Z,21.19
2023-05-21T10:00:56.798Z,21.22
2023-05-21T10:03:23.622Z,21.27
2023-05-21T10:05:51.113Z,21.33
2023-05-21T10:08:18.446Z,21.40
2023-05-21T10:10:45.502Z,21.45
2023-05-21T10:13:12.451Z,21.45
2023-05-21T10:15:42.688Z,21.45
2023-05-21T10:18:09.766Z,21.47
2023-05-21T10:20:37.120Z,21.47
2023-05-21T10:23:04.367Z,21.50
2023-05-21T10:25:34.515Z,21.54
2023-05-21T10:28:01.384Z,21.60
2023-05-21T10:30:28.312Z,21.65
2023-05-21T10:32:56.576Z,21.69
2023-05-21T10:35:23.663Z,21.72
2023-05-21T10:37:51.074Z,21.74
2023-05-21T10:40:18.038Z,21.75
2023-05-21T10:43:17.203Z,21.77
2023-05-21T10:45:58.994Z,21.83
2023-05-21T10:48:57.565Z,21.88
2023-05-21T10:51:51.404Z,21.95
2023-05-21T10:54:33.522Z,21.99
2023-05-21T10:57:21.333Z,22.05
2023-05-21T10:59:48.198Z,22.11
2023-05-21T11:02:15.722Z,22.14
2023-05-21T11:04:48.548Z,22.16
2023-05-21T11:07:16.933Z,22.22
2023-05-21T11:09:43.982Z,22.27
2023-05-21T11:12:12.370Z,22.28
2023-05-21T11:14:41.603Z,22.29
2023-05-21T11:17:08.439Z,22.30
2023-05-21T11:19:37.139Z,22.33
2023-05-21T11:22:08.776Z,22.34
2023-05-21T11:24:40.735Z,22.34
2023-05-21T11:27:08.067Z,22.35
2023-05-21T11:29:43.639Z,22.38
2023-05-21T11:32:11.906Z,22.42
2023-05-21T11:34:40.127Z,22.44
2023-05-21T11:37:16.718Z,22.42
2023-05-21T11:39:44.343Z,22.36
2023-05-21T11:42:11.192Z,22.25
2023-05-21T11:44:41.322Z,22.03
2023-05-21T11:47:18.325Z,21.57
2023-05-21T11:49:45.676Z,20.95
2023-05-21T11:52:12.979Z,20.49
2023-05-21T11:54:49.969Z,20.14
2023-05-21T11:57:18.521Z,19.82
2023-05-21T11:59:45.838Z,19.54
2023-05-21T12:02:16.787Z,19.34
2023-05-21T12:04:44.856Z,19.25
2023-05-21T12:07:12.826Z,19.13
2023-05-21T12:09:44.175Z,19.00
2023-05-21T12:12:13.605Z,18.81
2023-05-21T12:14:46.045Z,18.66
2023-05-21T12:17:15.058Z,18.48
2023-05-21T12:19:42.105Z,18.29
2023-05-21T12:22:08.994Z,18.16
2023-05-21T12:24:36.648Z,18.08
2023-05-21T12:27:08.994Z,17.99
2023-05-21T12:29:40.019Z,17.95
2023-05-21T12:32:08.814Z,18.00
2023-05-21T12:34:45.722Z,18.07
2023-05-21T12:37:16.328Z,18.13
2023-05-21T12:39:44.222Z,18.12
2023-05-21T12:42:11.222Z,18.07
2023-05-21T12:44:39.561Z,18.05
2023-05-21T12:47:06.592Z,18.03
2023-05-21T12:49:35.833Z,18.05
2023-05-21T12:52:04.399Z,18.03
2023-05-21T12:54:33.700Z,17.94
2023-05-21T12:57:14.144Z,17.82
2023-05-21T12:59:47.778Z,17.71
2023-05-21T13:02:21.046Z,17.41
2023-05-21T13:04:48.228Z,17.18
2023-05-21T13:07:16.028Z,17.07
2023-05-21T13:09:43.791Z,16.98
2023-05-21T13:12:11.810Z,16.98
2023-05-21T13:14:39.181Z,17.02
2023-05-21T13:17:06.223Z,17.04
2023-05-21T13:19:33.212Z,17.02
2023-05-21T13:24:17.818Z,16.97
2023-05-21T13:26:44.756Z,16.87
2023-05-21T13:29:14.991Z,16.79
2023-05-21T13:31:42.448Z,16.72
2023-05-21T13:34:11.105Z,16.66
2023-05-21T13:36:38.044Z,16.60
2023-05-21T13:39:05.021Z,16.54
2023-05-21T13:41:31.933Z,16.47
2023-05-21T13:43:59.257Z,16.41
2023-05-21T13:46:26.211Z,16.35
2023-05-21T13:48:53.204Z,16.30
2023-05-21T13:51:34.540Z,16.23
2023-05-21T13:54:04.935Z,16.18
2023-05-21T13:56:33.838Z,16.13
2023-05-21T13:59:01.706Z,16.07
2023-05-21T14:01:28.695Z,16.05
2023-05-21T14:03:55.893Z,16.02
2023-05-21T14:06:22.962Z,15.99
2023-05-21T14:08:49.843Z,15.97
2023-05-21T14:11:17.889Z,15.95
2023-05-21T14:13:44.857Z,15.95
2023-05-21T14:16:11.844Z,15.95
2023-05-21T14:18:38.948Z,15.96
2023-05-21T14:21:05.999Z,15.99
2023-05-21T14:23:33.199Z,16.01
2023-05-21T14:26:00.233Z,16.04
2023-05-21T14:28:27.190Z,15.93
2023-05-21T14:30:54.373Z,15.87
2023-05-21T14:33:21.366Z,15.88
2023-05-21T14:35:48.994Z,15.94
2023-05-21T14:38:16.727Z,16.00
2023-05-21T14:40:43.754Z,16.05
2023-05-21T14:43:10.681Z,16.11
2023-05-21T14:45:37.797Z,16.15
2023-05-21T14:48:11.933Z,16.21
2023-05-21T14:50:39.338Z,16.27
2023-05-21T14:53:09.995Z,16.29
2023-05-21T14:55:37.409Z,16.30
2023-05-21T14:58:05.195Z,16.31
2023-05-21T15:00:32.584Z,16.30
2023-05-21T15:02:59.727Z,16.31
2023-05-21T15:05:28.146Z,16.33
2023-05-21T15:07:56.301Z,16.34
2023-05-21T15:10:24.037Z,16.37
2023-05-21T15:12:51.433Z,16.40
2023-05-21T15:15:20.875Z,16.43
2023-05-21T15:17:48.604Z,16.44
2023-05-21T15:20:15.801Z,16.46
2023-05-21T15:22:42.803Z,16.48
2023-05-21T15:25:10.761Z,16.51
2023-05-21T15:27:38.028Z,16.54
2023-05-21T15:30:05.891Z,16.57
2023-05-21T15:32:32.854Z,16.59
2023-05-21T15:35:00.262Z,16.60
2023-05-21T15:37:27.492Z,16.62
2023-05-21T15:39:54.437Z,16.66
2023-05-21T15:42:21.585Z,16.68
2023-05-21T15:44:49.027Z,16.69
2023-05-21T15:47:16.287Z,16.70
2023-05-21T15:49:43.545Z,16.70
2023-05-21T15:52:10.703Z,16.71
2023-05-21T15:54:37.749Z,16.72
2023-05-21T15:57:04.870Z,16.73
2023-05-21T15:59:31.886Z,16.73
2023-05-21T16:01:59.072Z,16.72
2023-05-21T16:04:26.095Z,16.70
2023-05-21T16:06:53.163Z,16.68
2023-05-21T16:09:20.078Z,16.68
2023-05-21T16:11:49.098Z,16.68
2023-05-21T16:14:16.427Z,16.68
2023-05-21T16:16:43.639Z,16.70
2023-05-21T16:19:10.926Z,16.70
2023-05-21T16:21:38.051Z,16.62
2023-05-21T16:24:05.769Z,16.51
2023-05-21T16:26:32.934Z,16.46
2023-05-21T16:29:02.245Z,16.52
2023-05-21T16:31:29.403Z,16.55
2023-05-21T16:33:56.544Z,16.56
2023-05-21T16:36:23.561Z,16.59
2023-05-21T16:38:50.643Z,16.61
2023-05-21T16:41:17.694Z,16.62
2023-05-21T16:43:44.776Z,16.65
2023-05-21T16:46:12.031Z,16.66
2023-05-21T16:48:40.181Z,16.66
2023-05-21T16:51:07.338Z,16.65
2023-05-21T16:53:34.494Z,16.65
2023-05-21T16:56:01.514Z,16.66
2023-05-21T16:58:28.469Z,16.67
2023-05-21T17:00:55.457Z,16.68
2023-05-21T17:03:22.714Z,16.68
2023-05-21T17:05:50.052Z,16.68
2023-05-21T17:08:17.065Z,16.67
2023-05-21T17:10:44.003Z,16.67
2023-05-21T17:13:21.536Z,16.67
2023-05-21T17:15:51.169Z,16.67
2023-05-21T17:18:18.215Z,16.67
2023-05-21T17:20:45.188Z,16.67
2023-05-21T17:23:12.368Z,16.68
2023-05-21T17:25:40.213Z,16.68
2023-05-21T17:28:07.685Z,16.67
2023-05-21T17:30:34.728Z,16.66
2023-05-21T17:33:04.498Z,16.64
2023-05-21T17:35:31.458Z,16.63
2023-05-21T17:37:58.388Z,16.61
2023-05-21T17:40:25.338Z,16.60
2023-05-21T17:42:52.813Z,16.61
2023-05-21T17:45:55.688Z,16.62
2023-05-21T17:48:22.672Z,16.60
2023-05-21T17:50:49.826Z,16.61
2023-05-21T17:53:16.778Z,16.60
2023-05-21T17:55:44.051Z,16.58
2023-05-21T17:58:11.095Z,16.57
2023-05-21T18:00:38.132Z,16.56
2023-05-21T18:03:06.979Z,16.54
2023-05-21T18:05:35.950Z,16.55
2023-05-21T18:08:10.184Z,16.55
2023-05-21T18:10:37.908Z,16.57
2023-05-21T18:13:05.080Z,16.58
2023-05-21T18:15:33.252Z,16.58
2023-05-21T18:18:00.391Z,16.57
2023-05-21T18:20:27.563Z,16.54
2023-05-21T18:22:54.550Z,16.53
2023-05-21T18:25:21.879Z,16.51
2023-05-21T18:27:48.755Z,16.50
2023-05-21T18:30:15.906Z,16.50
2023-05-21T18:32:44.552Z,16.50
2023-05-21T18:35:13.647Z,16.50
2023-05-21T18:37:44.615Z,16.50
2023-05-21T18:40:12.718Z,16.50
2023-05-21T18:42:39.611Z,16.51
2023-05-21T18:45:08.347Z,16.52
2023-05-21T18:47:35.389Z,16.53
2023-05-21T18:50:02.306Z,16.53
2023-05-21T18:52:29.182Z,16.54
2023-05-21T18:54:56.097Z,16.54
2023-05-21T18:57:23.186Z,16.55
2023-05-21T18:59:50.242Z,16.56
2023-05-21T19:02:17.546Z,16.56
2023-05-21T19:04:44.519Z,16.53
2023-05-21T19:07:11.461Z,16.50
2023-05-21T19:09:38.332Z,16.44
2023-05-21T19:12:07.792Z,16.41
2023-05-21T19:14:34.701Z,16.44
2023-05-21T19:17:01.622Z,16.40
2023-05-21T19:19:28.809Z,16.32
2023-05-21T19:21:56.008Z,16.27
2023-05-21T19:24:22.899Z,16.21
2023-05-21T19:26:49.865Z,16.20
2023-05-21T19:29:16.846Z,16.17
2023-05-21T19:31:43.740Z,16.19
2023-05-21T19:34:11.047Z,16.24
2023-05-21T19:36:51.629Z,16.27
2023-05-21T19:39:20.815Z,16.28
2023-05-21T19:41:47.733Z,16.27
2023-05-21T19:44:14.666Z,16.29
2023-05-21T19:46:41.599Z,16.28
2023-05-21T19:49:10.739Z,16.28
2023-05-21T19:51:37.796Z,16.28
2023-05-21T19:54:04.849Z,16.31
2023-05-21T19:56:31.712Z,16.33
2023-05-21T19:58:58.577Z,16.33
2023-05-21T20:01:25.552Z,16.28
2023-05-21T20:03:52.574Z,16.16
2023-05-21T20:06:20.895Z,16.02
2023-05-21T20:08:48.226Z,15.89
2023-05-21T20:11:15.199Z,15.77
2023-05-21T20:13:42.495Z,15.78
2023-05-21T20:16:10.609Z,15.84
2023-05-21T20:18:37.734Z,15.80
2023-05-21T20:21:06.406Z,15.76
2023-05-21T20:23:33.398Z,15.75
2023-05-21T20:26:00.333Z,15.68
2023-05-21T20:28:27.384Z,15.65
2023-05-21T20:30:58.159Z,15.66
2023-05-21T20:33:28.054Z,15.58
2023-05-21T20:35:55.079Z,15.57
2023-05-21T20:38:22.206Z,15.62
2023-05-21T20:40:49.101Z,15.62
2023-05-21T20:43:15.972Z,15.68
2023-05-21T20:45:43.903Z,15.75
2023-05-21T20:48:12.217Z,15.80
2023-05-21T20:50:40.976Z,15.86
2023-05-21T20:53:08.586Z,15.92
2023-05-21T20:55:38.722Z,15.95
2023-05-21T20:58:05.855Z,15.96
2023-05-21T21:00:33.594Z,15.98
2023-05-21T21:03:02.062Z,15.98
2023-05-21T21:05:29.260Z,15.99
2023-05-21T21:07:56.218Z,15.97
2023-05-21T21:10:23.111Z,15.96
2023-05-21T21:12:50.191Z,15.93
2023-05-21T21:15:17.364Z,15.89
2023-05-21T21:17:44.369Z,15.86
2023-05-21T21:20:13.762Z,15.85
2023-05-21T21:22:41.479Z,15.84
2023-05-21T21:25:09.141Z,15.84
2023-05-21T21:27:36.386Z,15.84
2023-05-21T21:30:04.734Z,15.84
2023-05-21T21:32:31.660Z,15.84
2023-05-21T21:34:58.681Z,15.82
2023-05-21T21:37:25.863Z,15.81
2023-05-21T21:39:53.518Z,15.81
2023-05-21T21:42:20.560Z,15.81
2023-05-21T21:44:47.471Z,15.80
2023-05-21T21:47:14.420Z,15.80
2023-05-21T21:49:41.790Z,15.82
2023-05-21T21:52:08.796Z,15.83
2023-05-21T21:54:35.677Z,15.83
2023-05-21T21:57:02.596Z,15.84
2023-05-21T21:59:29.479Z,15.83
2023-05-21T22:01:56.781Z,15.82
2023-05-21T22:04:23.742Z,15.80
2023-05-21T22:06:52.111Z,15.78
2023-05-21T22:09:22.674Z,15.78
2023-05-21T22:11:49.904Z,15.75
2023-05-21T22:14:18.349Z,15.75
2023-05-21T22:16:47.642Z,15.75
2023-05-21T22:19:16.320Z,15.76
2023-05-21T22:21:43.658Z,15.77
2023-05-21T22:24:24.154Z,15.79
2023-05-21T22:26:57.712Z,15.80
2023-05-21T22:29:24.758Z,15.80
2023-05-21T22:31:51.815Z,15.80
2023-05-21T22:34:18.783Z,15.79
2023-05-21T22:36:46.953Z,15.78
2023-05-21T22:39:14.422Z,15.79
2023-05-21T22:41:42.223Z,15.79
2023-05-21T22:44:09.435Z,15.78
2023-05-21T22:46:36.545Z,15.76
2023-05-21T22:49:03.746Z,15.74
2023-05-21T22:51:34.966Z,15.73
2023-05-21T22:54:02.151Z,15.71
2023-05-21T22:56:29.338Z,15.68
2023-05-21T22:58:56.510Z,15.67
2023-05-21T23:01:23.595Z,15.65
2023-05-21T23:03:51.422Z,15.64
2023-05-21T23:06:18.558Z,15.64
2023-05-21T23:08:45.799Z,15.65
2023-05-21T23:11:12.792Z,15.65
2023-05-21T23:13:39.802Z,15.65
2023-05-21T23:16:07.297Z,15.65
2023-05-21T23:18:35.311Z,15.65
2023-05-21T23:23:29.269Z,15.67
2023-05-21T23:25:57.876Z,15.68
2023-05-21T23:28:25.782Z,15.70
2023-05-21T23:30:52.874Z,15.68
2023-05-21T23:33:20.015Z,15.67
2023-05-21T23:35:47.067Z,15.66
2023-05-21T23:38:14.127Z,15.65
2023-05-21T23:40:41.682Z,15.64
2023-05-21T23:43:08.649Z,15.63
2023-05-21T23:45:35.898Z,15.63
2023-05-21T23:48:02.965Z,15.61
2023-05-21T23:50:29.953Z,15.59
2023-05-21T23:52:56.846Z,15.57
2023-05-21T23:55:23.768Z,15.55
2023-05-21T23:57:50.737Z,15.53
